sensor_id;sensor_type;location;lat;lon;timestamp;temperature;humidity
20422;DHT22;10370;53.102;18.034;2023-07-22T00:01:58;16.50;99.90
20422;DHT22;10370;53.102;18.034;2023-07-22T00:07:21;16.40;99.90
20422;DHT22;10370;53.102;18.034;2023-07-22T00:12:44;16.40;99.90
20422;DHT22;10370;53.102;18.034;2023-07-22T00:18:07;16.20;99.90
20422;DHT22;10370;53.102;18.034;2023-07-22T00:23:30;16.20;99.90
20422;DHT22;10370;53.102;18.034;2023-07-22T00:28:53;16.10;99.90
20422;DHT22;10370;53.102;18.034;2023-07-22T00:34:16;16.10;99.90
20422;DHT22;10370;53.102;18.034;2023-07-22T00:39:38;16.10;99.90
20422;DHT22;10370;53.102;18.034;2023-07-22T00:45:01;16.10;99.90
20422;DHT22;10370;53.102;18.034;2023-07-22T00:50:24;16.00;99.90
20422;DHT22;10370;53.102;18.034;2023-07-22T00:55:47;16.00;99.90
20422;DHT22;10370;53.102;18.034;2023-07-22T01:06:21;16.10;99.90
20422;DHT22;10370;53.102;18.034;2023-07-22T01:11:43;16.10;99.90
20422;DHT22;10370;53.102;18.034;2023-07-22T01:17:09;16.10;99.90
20422;DHT22;10370;53.102;18.034;2023-07-22T01:22:33;15.90;99.90
20422;DHT22;10370;53.102;18.034;2023-07-22T01:27:56;15.80;99.90
20422;DHT22;10370;53.102;18.034;2023-07-22T01:33:19;16.00;99.90
20422;DHT22;10370;53.102;18.034;2023-07-22T01:38:41;15.80;99.90
20422;DHT22;10370;53.102;18.034;2023-07-22T01:44:04;15.80;99.90
20422;DHT22;10370;53.102;18.034;2023-07-22T01:49:27;15.80;99.90
20422;DHT22;10370;53.102;18.034;2023-07-22T01:54:49;15.70;99.90
20422;DHT22;10370;53.102;18.034;2023-07-22T02:00:12;15.70;99.90
20422;DHT22;10370;53.102;18.034;2023-07-22T02:05:37;15.70;99.90
20422;DHT22;10370;53.102;18.034;2023-07-22T02:11:04;15.70;99.90
20422;DHT22;10370;53.102;18.034;2023-07-22T02:16:26;15.60;99.90
20422;DHT22;10370;53.102;18.034;2023-07-22T02:21:49;15.50;99.90
20422;DHT22;10370;53.102;18.034;2023-07-22T02:27:12;15.50;99.90
20422;DHT22;10370;53.102;18.034;2023-07-22T02:32:34;15.40;99.90
20422;DHT22;10370;53.102;18.034;2023-07-22T02:37:57;15.30;99.90
20422;DHT22;10370;53.102;18.034;2023-07-22T02:43:20;15.20;99.90
20422;DHT22;10370;53.102;18.034;2023-07-22T02:48:42;15.20;99.90
20422;DHT22;10370;53.102;18.034;2023-07-22T02:54:05;15.20;99.90
20422;DHT22;10370;53.102;18.034;2023-07-22T02:59:28;15.20;99.90
20422;DHT22;10370;53.102;18.034;2023-07-22T03:04:50;15.10;99.90
20422;DHT22;10370;53.102;18.034;2023-07-22T03:10:13;14.90;99.90
20422;DHT22;10370;53.102;18.034;2023-07-22T03:15:36;15.10;99.90
20422;DHT22;10370;53.102;18.034;2023-07-22T03:20:58;15.10;99.90
20422;DHT22;10370;53.102;18.034;2023-07-22T03:26:21;15.10;99.90
20422;DHT22;10370;53.102;18.034;2023-07-22T03:31:47;14.90;99.90
20422;DHT22;10370;53.102;18.034;2023-07-22T03:37:09;15.00;99.90
20422;DHT22;10370;53.102;18.034;2023-07-22T03:42:34;15.00;99.90
20422;DHT22;10370;53.102;18.034;2023-07-22T03:47:58;15.10;99.90
20422;DHT22;10370;53.102;18.034;2023-07-22T03:53:22;15.10;99.90
20422;DHT22;10370;53.102;18.034;2023-07-22T03:58:45;15.00;99.90
20422;DHT22;10370;53.102;18.034;2023-07-22T04:04:07;15.00;99.90
20422;DHT22;10370;53.102;18.034;2023-07-22T04:09:30;15.00;99.90
20422;DHT22;10370;53.102;18.034;2023-07-22T04:14:53;14.90;99.90
20422;DHT22;10370;53.102;18.034;2023-07-22T04:20:15;14.80;99.90
20422;DHT22;10370;53.102;18.034;2023-07-22T04:25:39;15.10;99.90
20422;DHT22;10370;53.102;18.034;2023-07-22T04:31:03;15.30;99.90
20422;DHT22;10370;53.102;18.034;2023-07-22T04:36:26;15.60;99.90
20422;DHT22;10370;53.102;18.034;2023-07-22T04:41:49;15.60;99.90
20422;DHT22;10370;53.102;18.034;2023-07-22T04:47:12;15.80;99.90
20422;DHT22;10370;53.102;18.034;2023-07-22T04:52:35;16.10;99.90
20422;DHT22;10370;53.102;18.034;2023-07-22T04:57:58;16.90;99.90
20422;DHT22;10370;53.102;18.034;2023-07-22T05:03:22;18.20;99.90
20422;DHT22;10370;53.102;18.034;2023-07-22T05:08:47;19.50;99.90
20422;DHT22;10370;53.102;18.034;2023-07-22T05:14:10;20.60;99.90
20422;DHT22;10370;53.102;18.034;2023-07-22T05:19:32;21.60;99.90
20422;DHT22;10370;53.102;18.034;2023-07-22T05:24:55;22.80;99.90
20422;DHT22;10370;53.102;18.034;2023-07-22T05:30:18;23.70;99.90
20422;DHT22;10370;53.102;18.034;2023-07-22T05:35:55;24.90;99.90
20422;DHT22;10370;53.102;18.034;2023-07-22T05:41:18;25.90;99.90
20422;DHT22;10370;53.102;18.034;2023-07-22T05:46:40;26.40;99.90
20422;DHT22;10370;53.102;18.034;2023-07-22T05:52:03;27.40;99.90
20422;DHT22;10370;53.102;18.034;2023-07-22T05:57:26;27.20;99.90
20422;DHT22;10370;53.102;18.034;2023-07-22T06:02:50;29.00;99.90
20422;DHT22;10370;53.102;18.034;2023-07-22T06:08:13;27.80;99.90
20422;DHT22;10370;53.102;18.034;2023-07-22T06:13:36;29.00;99.90
20422;DHT22;10370;53.102;18.034;2023-07-22T06:18:59;28.40;99.00
20422;DHT22;10370;53.102;18.034;2023-07-22T06:24:22;26.00;99.90
20422;DHT22;10370;53.102;18.034;2023-07-22T06:29:44;22.70;99.90
20422;DHT22;10370;53.102;18.034;2023-07-22T06:35:07;21.80;99.90
20422;DHT22;10370;53.102;18.034;2023-07-22T06:40:32;21.20;99.90
20422;DHT22;10370;53.102;18.034;2023-07-22T06:45:55;21.10;99.90
20422;DHT22;10370;53.102;18.034;2023-07-22T06:51:17;21.20;99.90
20422;DHT22;10370;53.102;18.034;2023-07-22T06:56:40;21.10;99.90
20422;DHT22;10370;53.102;18.034;2023-07-22T07:02:04;20.60;99.90
20422;DHT22;10370;53.102;18.034;2023-07-22T07:07:29;20.30;99.90
20422;DHT22;10370;53.102;18.034;2023-07-22T07:12:52;20.60;99.90
20422;DHT22;10370;53.102;18.034;2023-07-22T07:18:15;20.70;99.90
20422;DHT22;10370;53.102;18.034;2023-07-22T07:23:38;20.50;99.90
20422;DHT22;10370;53.102;18.034;2023-07-22T07:29:00;20.60;99.90
20422;DHT22;10370;53.102;18.034;2023-07-22T07:34:23;20.70;99.90
20422;DHT22;10370;53.102;18.034;2023-07-22T07:39:46;20.80;99.90
20422;DHT22;10370;53.102;18.034;2023-07-22T07:45:09;20.70;99.90
20422;DHT22;10370;53.102;18.034;2023-07-22T07:50:32;20.90;99.90
20422;DHT22;10370;53.102;18.034;2023-07-22T07:55:55;21.20;99.90
20422;DHT22;10370;53.102;18.034;2023-07-22T08:01:18;21.50;99.90
20422;DHT22;10370;53.102;18.034;2023-07-22T08:06:41;21.50;99.90
20422;DHT22;10370;53.102;18.034;2023-07-22T08:12:04;21.70;99.90
20422;DHT22;10370;53.102;18.034;2023-07-22T08:17:27;21.60;99.90
20422;DHT22;10370;53.102;18.034;2023-07-22T08:22:50;21.20;99.90
20422;DHT22;10370;53.102;18.034;2023-07-22T08:28:13;21.10;99.90
20422;DHT22;10370;53.102;18.034;2023-07-22T08:33:35;21.30;99.90
20422;DHT22;10370;53.102;18.034;2023-07-22T08:39:02;21.50;99.90
20422;DHT22;10370;53.102;18.034;2023-07-22T08:44:31;21.30;99.90
20422;DHT22;10370;53.102;18.034;2023-07-22T08:49:58;21.10;99.90
20422;DHT22;10370;53.102;18.034;2023-07-22T08:55:23;20.90;99.90
20422;DHT22;10370;53.102;18.034;2023-07-22T09:00:47;21.10;99.90
20422;DHT22;10370;53.102;18.034;2023-07-22T09:06:11;20.90;99.90
20422;DHT22;10370;53.102;18.034;2023-07-22T09:11:34;21.20;99.90
20422;DHT22;10370;53.102;18.034;2023-07-22T09:16:59;21.30;99.90
20422;DHT22;10370;53.102;18.034;2023-07-22T09:22:25;21.20;99.90
20422;DHT22;10370;53.102;18.034;2023-07-22T09:27:54;20.60;99.90
20422;DHT22;10370;53.102;18.034;2023-07-22T09:33:23;20.40;99.90
20422;DHT22;10370;53.102;18.034;2023-07-22T09:39:08;20.20;99.90
20422;DHT22;10370;53.102;18.034;2023-07-22T09:44:31;20.60;99.90
20422;DHT22;10370;53.102;18.034;2023-07-22T09:49:59;20.60;99.90
20422;DHT22;10370;53.102;18.034;2023-07-22T09:55:24;20.60;99.90
20422;DHT22;10370;53.102;18.034;2023-07-22T10:00:48;20.50;99.90
20422;DHT22;10370;53.102;18.034;2023-07-22T10:06:13;20.60;99.90
20422;DHT22;10370;53.102;18.034;2023-07-22T10:11:37;20.30;99.90
20422;DHT22;10370;53.102;18.034;2023-07-22T10:17:01;19.70;99.90
20422;DHT22;10370;53.102;18.034;2023-07-22T10:22:24;19.70;99.90
20422;DHT22;10370;53.102;18.034;2023-07-22T10:27:49;19.90;99.90
20422;DHT22;10370;53.102;18.034;2023-07-22T10:33:12;19.70;99.90
20422;DHT22;10370;53.102;18.034;2023-07-22T10:38:35;19.60;99.90
20422;DHT22;10370;53.102;18.034;2023-07-22T10:43:59;20.00;99.90
20422;DHT22;10370;53.102;18.034;2023-07-22T10:49:23;19.90;99.90
20422;DHT22;10370;53.102;18.034;2023-07-22T10:54:48;19.80;99.90
20422;DHT22;10370;53.102;18.034;2023-07-22T11:00:21;19.90;99.90
20422;DHT22;10370;53.102;18.034;2023-07-22T11:06:07;20.40;99.90
20422;DHT22;10370;53.102;18.034;2023-07-22T11:11:40;20.50;99.90
20422;DHT22;10370;53.102;18.034;2023-07-22T11:17:04;20.60;99.90
20422;DHT22;10370;53.102;18.034;2023-07-22T11:22:28;20.60;99.90
20422;DHT22;10370;53.102;18.034;2023-07-22T11:27:54;20.70;99.90
20422;DHT22;10370;53.102;18.034;2023-07-22T11:33:17;20.80;99.90
20422;DHT22;10370;53.102;18.034;2023-07-22T11:38:39;21.20;99.90
20422;DHT22;10370;53.102;18.034;2023-07-22T11:44:03;21.10;99.90
20422;DHT22;10370;53.102;18.034;2023-07-22T11:49:35;21.30;99.90
20422;DHT22;10370;53.102;18.034;2023-07-22T11:55:02;21.70;99.90
20422;DHT22;10370;53.102;18.034;2023-07-22T12:00:26;21.60;99.90
20422;DHT22;10370;53.102;18.034;2023-07-22T12:05:48;21.40;99.90
20422;DHT22;10370;53.102;18.034;2023-07-22T12:11:24;21.30;99.90
20422;DHT22;10370;53.102;18.034;2023-07-22T12:16:47;21.90;99.90
20422;DHT22;10370;53.102;18.034;2023-07-22T12:22:09;21.70;99.90
20422;DHT22;10370;53.102;18.034;2023-07-22T12:27:32;21.50;99.90
20422;DHT22;10370;53.102;18.034;2023-07-22T12:32:55;21.40;99.90
20422;DHT22;10370;53.102;18.034;2023-07-22T12:38:17;21.90;99.90
20422;DHT22;10370;53.102;18.034;2023-07-22T12:43:40;21.60;99.90
20422;DHT22;10370;53.102;18.034;2023-07-22T12:49:03;21.40;99.90
20422;DHT22;10370;53.102;18.034;2023-07-22T12:54:28;21.50;99.90
20422;DHT22;10370;53.102;18.034;2023-07-22T12:59:51;22.00;99.90
20422;DHT22;10370;53.102;18.034;2023-07-22T13:05:14;22.20;99.90
20422;DHT22;10370;53.102;18.034;2023-07-22T13:10:37;22.00;99.90
20422;DHT22;10370;53.102;18.034;2023-07-22T13:16:02;21.90;99.90
20422;DHT22;10370;53.102;18.034;2023-07-22T13:21:25;22.10;99.90
20422;DHT22;10370;53.102;18.034;2023-07-22T13:26:49;21.90;99.90
20422;DHT22;10370;53.102;18.034;2023-07-22T13:32:13;21.60;99.90
20422;DHT22;10370;53.102;18.034;2023-07-22T13:37:36;21.50;99.90
20422;DHT22;10370;53.102;18.034;2023-07-22T13:42:59;21.50;99.90
20422;DHT22;10370;53.102;18.034;2023-07-22T13:48:22;21.80;99.90
20422;DHT22;10370;53.102;18.034;2023-07-22T13:53:45;22.00;99.90
20422;DHT22;10370;53.102;18.034;2023-07-22T13:59:08;22.00;99.90
20422;DHT22;10370;53.102;18.034;2023-07-22T14:04:31;22.10;99.90
20422;DHT22;10370;53.102;18.034;2023-07-22T14:09:54;22.20;99.90
20422;DHT22;10370;53.102;18.034;2023-07-22T14:15:17;22.20;99.90
20422;DHT22;10370;53.102;18.034;2023-07-22T14:20:40;22.40;99.90
20422;DHT22;10370;53.102;18.034;2023-07-22T14:26:02;22.40;99.90
20422;DHT22;10370;53.102;18.034;2023-07-22T14:31:25;22.30;99.90
20422;DHT22;10370;53.102;18.034;2023-07-22T14:36:48;22.30;99.90
20422;DHT22;10370;53.102;18.034;2023-07-22T14:42:11;22.60;99.90
20422;DHT22;10370;53.102;18.034;2023-07-22T14:47:34;22.50;99.90
20422;DHT22;10370;53.102;18.034;2023-07-22T14:52:57;22.30;99.30
20422;DHT22;10370;53.102;18.034;2023-07-22T14:58:21;22.30;99.70
20422;DHT22;10370;53.102;18.034;2023-07-22T15:03:43;22.20;99.90
20422;DHT22;10370;53.102;18.034;2023-07-22T15:09:06;22.30;97.90
20422;DHT22;10370;53.102;18.034;2023-07-22T15:14:29;22.40;96.50
20422;DHT22;10370;53.102;18.034;2023-07-22T15:19:55;22.30;97.50
20422;DHT22;10370;53.102;18.034;2023-07-22T15:25:17;22.40;97.80
20422;DHT22;10370;53.102;18.034;2023-07-22T15:30:40;22.10;96.80
20422;DHT22;10370;53.102;18.034;2023-07-22T15:36:03;22.20;98.00
20422;DHT22;10370;53.102;18.034;2023-07-22T15:41:26;22.00;96.40
20422;DHT22;10370;53.102;18.034;2023-07-22T15:46:52;21.90;97.00
20422;DHT22;10370;53.102;18.034;2023-07-22T15:52:17;21.90;97.30
20422;DHT22;10370;53.102;18.034;2023-07-22T15:57:40;21.50;97.40
20422;DHT22;10370;53.102;18.034;2023-07-22T16:03:03;21.40;95.80
20422;DHT22;10370;53.102;18.034;2023-07-22T16:08:26;21.30;96.30
20422;DHT22;10370;53.102;18.034;2023-07-22T16:13:50;21.10;96.30
20422;DHT22;10370;53.102;18.034;2023-07-22T16:19:15;21.00;96.20
20422;DHT22;10370;53.102;18.034;2023-07-22T16:24:38;21.00;96.50
20422;DHT22;10370;53.102;18.034;2023-07-22T16:30:01;20.80;97.20
20422;DHT22;10370;53.102;18.034;2023-07-22T16:35:23;20.50;96.90
20422;DHT22;10370;53.102;18.034;2023-07-22T16:40:46;20.50;97.20
20422;DHT22;10370;53.102;18.034;2023-07-22T16:46:08;20.50;97.20
20422;DHT22;10370;53.102;18.034;2023-07-22T16:51:31;20.50;97.20
20422;DHT22;10370;53.102;18.034;2023-07-22T16:56:54;20.60;97.00
20422;DHT22;10370;53.102;18.034;2023-07-22T17:02:16;20.60;96.80
20422;DHT22;10370;53.102;18.034;2023-07-22T17:07:40;20.70;97.00
20422;DHT22;10370;53.102;18.034;2023-07-22T17:13:04;20.60;97.70
20422;DHT22;10370;53.102;18.034;2023-07-22T17:18:26;20.80;97.20
20422;DHT22;10370;53.102;18.034;2023-07-22T17:23:49;20.90;97.60
20422;DHT22;10370;53.102;18.034;2023-07-22T17:29:12;21.00;97.80
20422;DHT22;10370;53.102;18.034;2023-07-22T17:34:35;20.80;97.20
20422;DHT22;10370;53.102;18.034;2023-07-22T17:39:57;20.70;97.80
20422;DHT22;10370;53.102;18.034;2023-07-22T17:45:21;20.70;98.20
20422;DHT22;10370;53.102;18.034;2023-07-22T17:50:44;20.70;98.40
20422;DHT22;10370;53.102;18.034;2023-07-22T17:56:07;20.80;98.40
20422;DHT22;10370;53.102;18.034;2023-07-22T18:01:29;20.70;98.80
20422;DHT22;10370;53.102;18.034;2023-07-22T18:06:52;20.60;98.90
20422;DHT22;10370;53.102;18.034;2023-07-22T18:12:15;20.60;99.50
20422;DHT22;10370;53.102;18.034;2023-07-22T18:17:37;20.50;99.20
20422;DHT22;10370;53.102;18.034;2023-07-22T18:23:00;20.40;99.50
20422;DHT22;10370;53.102;18.034;2023-07-22T18:28:24;20.30;99.90
20422;DHT22;10370;53.102;18.034;2023-07-22T18:33:48;20.00;99.90
20422;DHT22;10370;53.102;18.034;2023-07-22T18:39:11;19.90;99.90
20422;DHT22;10370;53.102;18.034;2023-07-22T18:44:34;19.60;99.90
20422;DHT22;10370;53.102;18.034;2023-07-22T18:50:00;19.40;99.90
20422;DHT22;10370;53.102;18.034;2023-07-22T18:55:24;19.10;99.90
20422;DHT22;10370;53.102;18.034;2023-07-22T19:00:48;18.80;99.90
20422;DHT22;10370;53.102;18.034;2023-07-22T19:06:12;18.60;99.90
20422;DHT22;10370;53.102;18.034;2023-07-22T19:11:34;18.50;99.90
20422;DHT22;10370;53.102;18.034;2023-07-22T19:16:57;18.20;99.90
20422;DHT22;10370;53.102;18.034;2023-07-22T19:22:20;17.90;99.90
20422;DHT22;10370;53.102;18.034;2023-07-22T19:27:44;17.70;99.90
20422;DHT22;10370;53.102;18.034;2023-07-22T19:33:07;17.40;99.90
20422;DHT22;10370;53.102;18.034;2023-07-22T19:38:33;17.20;99.90
20422;DHT22;10370;53.102;18.034;2023-07-22T19:43:58;16.90;99.90
20422;DHT22;10370;53.102;18.034;2023-07-22T19:49:24;16.70;99.90
20422;DHT22;10370;53.102;18.034;2023-07-22T19:54:48;16.30;99.90
20422;DHT22;10370;53.102;18.034;2023-07-22T20:00:13;15.90;99.90
20422;DHT22;10370;53.102;18.034;2023-07-22T20:05:37;15.60;99.90
20422;DHT22;10370;53.102;18.034;2023-07-22T20:11:02;15.50;99.90
20422;DHT22;10370;53.102;18.034;2023-07-22T20:16:29;15.30;99.90
20422;DHT22;10370;53.102;18.034;2023-07-22T20:21:53;15.20;99.90
20422;DHT22;10370;53.102;18.034;2023-07-22T20:27:16;15.20;99.90
20422;DHT22;10370;53.102;18.034;2023-07-22T20:32:43;15.10;99.90
20422;DHT22;10370;53.102;18.034;2023-07-22T20:38:13;15.00;99.90
20422;DHT22;10370;53.102;18.034;2023-07-22T20:43:35;14.80;99.90
20422;DHT22;10370;53.102;18.034;2023-07-22T20:48:58;14.70;99.90
20422;DHT22;10370;53.102;18.034;2023-07-22T20:54:24;14.70;99.90
20422;DHT22;10370;53.102;18.034;2023-07-22T20:59:54;14.60;99.90
20422;DHT22;10370;53.102;18.034;2023-07-22T21:05:16;14.50;99.90
20422;DHT22;10370;53.102;18.034;2023-07-22T21:10:39;14.40;99.90
20422;DHT22;10370;53.102;18.034;2023-07-22T21:16:02;14.30;99.90
20422;DHT22;10370;53.102;18.034;2023-07-22T21:21:24;14.30;99.90
20422;DHT22;10370;53.102;18.034;2023-07-22T21:26:47;14.30;99.90
20422;DHT22;10370;53.102;18.034;2023-07-22T21:32:11;14.20;99.90
20422;DHT22;10370;53.102;18.034;2023-07-22T21:37:34;13.90;99.90
20422;DHT22;10370;53.102;18.034;2023-07-22T21:42:56;13.80;99.90
20422;DHT22;10370;53.102;18.034;2023-07-22T21:48:19;13.70;99.90
20422;DHT22;10370;53.102;18.034;2023-07-22T21:53:41;13.40;99.90
20422;DHT22;10370;53.102;18.034;2023-07-22T21:59:04;13.50;99.90
20422;DHT22;10370;53.102;18.034;2023-07-22T22:04:27;13.60;99.90
20422;DHT22;10370;53.102;18.034;2023-07-22T22:09:54;13.60;99.90
20422;DHT22;10370;53.102;18.034;2023-07-22T22:15:17;13.60;99.90
20422;DHT22;10370;53.102;18.034;2023-07-22T22:20:40;13.50;99.90
20422;DHT22;10370;53.102;18.034;2023-07-22T22:26:03;13.40;99.90
20422;DHT22;10370;53.102;18.034;2023-07-22T22:31:25;13.40;99.90
20422;DHT22;10370;53.102;18.034;2023-07-22T22:36:49;13.40;99.90
20422;DHT22;10370;53.102;18.034;2023-07-22T22:42:12;13.10;99.90
20422;DHT22;10370;53.102;18.034;2023-07-22T22:47:35;13.00;99.90
20422;DHT22;10370;53.102;18.034;2023-07-22T22:52:58;12.90;99.90
20422;DHT22;10370;53.102;18.034;2023-07-22T22:58:20;12.70;99.90
20422;DHT22;10370;53.102;18.034;2023-07-22T23:03:44;12.50;99.90
20422;DHT22;10370;53.102;18.034;2023-07-22T23:09:10;12.50;99.90
20422;DHT22;10370;53.102;18.034;2023-07-22T23:14:33;12.50;99.90
20422;DHT22;10370;53.102;18.034;2023-07-22T23:19:57;12.50;99.90
20422;DHT22;10370;53.102;18.034;2023-07-22T23:25:20;12.40;99.90
20422;DHT22;10370;53.102;18.034;2023-07-22T23:30:43;12.40;99.90
20422;DHT22;10370;53.102;18.034;2023-07-22T23:36:07;12.40;99.90
20422;DHT22;10370;53.102;18.034;2023-07-22T23:41:30;12.30;99.90
20422;DHT22;10370;53.102;18.034;2023-07-22T23:46:53;12.30;99.90
20422;DHT22;10370;53.102;18.034;2023-07-22T23:52:15;12.10;99.90
20422;DHT22;10370;53.102;18.034;2023-07-22T23:57:38;12.20;99.90
